createdAt,value
2022-10-02T00:03:39.140Z,99322.38
2022-10-02T00:08:43.379Z,99322.42
2022-10-02T00:13:48.769Z,99321.71
2022-10-02T00:18:55.499Z,99322.99
2022-10-02T00:24:00.981Z,99323.14
2022-10-02T00:29:20.144Z,99326.61
2022-10-02T00:34:54.409Z,99330.45
2022-10-02T00:40:26.057Z,99335.27
2022-10-02T00:45:45.813Z,99329.73
2022-10-02T00:50:54.767Z,99327.05
2022-10-02T00:55:58.110Z,99328.49
2022-10-02T01:01:37.766Z,99333.30
2022-10-02T01:06:41.757Z,99330.76
2022-10-02T01:11:45.626Z,99336.14
2022-10-02T01:16:49.075Z,99340.27
2022-10-02T01:22:03.419Z,99341.95
2022-10-02T01:27:06.955Z,99343.17
2022-10-02T01:32:10.579Z,99350.11
2022-10-02T01:37:14.050Z,99352.32
2022-10-02T01:42:17.988Z,99356.58
2022-10-02T01:47:43.948Z,99359.44
2022-10-02T01:53:14.047Z,99369.28
2022-10-02T01:58:26.773Z,99376.54
2022-10-02T02:03:59.324Z,99383.91
2022-10-02T02:09:32.059Z,99385.09
2022-10-02T02:14:41.749Z,99390.05
2022-10-02T02:20:03.613Z,99393.80
2022-10-02T02:25:13.068Z,99394.75
2022-10-02T02:30:17.483Z,99397.97
2022-10-02T02:35:27.348Z,99400.09
2022-10-02T02:40:33.918Z,99398.48
2022-10-02T02:45:42.965Z,99399.17
2022-10-02T02:50:59.668Z,99402.36
2022-10-02T02:56:08.639Z,99403.05
2022-10-02T03:01:12.325Z,99406.31
2022-10-02T03:06:15.868Z,99405.64
2022-10-02T03:11:56.431Z,99407.01
2022-10-02T03:17:20.067Z,99404.62
2022-10-02T03:22:25.743Z,99407.61
2022-10-02T03:27:42.266Z,99407.61
2022-10-02T03:32:46.876Z,99413.37
2022-10-02T03:37:54.381Z,99414.17
2022-10-02T03:42:58.922Z,99408.03
2022-10-02T03:48:02.130Z,99414.59
2022-10-02T03:53:15.779Z,99416.48
2022-10-02T03:58:19.376Z,99418.75
2022-10-02T04:03:37.153Z,99416.45
2022-10-02T04:09:05.019Z,99411.94
2022-10-02T04:14:15.243Z,99415.85
2022-10-02T04:19:29.821Z,99420.55
2022-10-02T04:24:59.374Z,99421.34
2022-10-02T04:30:17.891Z,99426.45
2022-10-02T04:35:52.075Z,99433.66
2022-10-02T04:41:13.787Z,99435.00
2022-10-02T04:46:38.893Z,99437.02
2022-10-02T04:51:48.426Z,99445.16
2022-10-02T04:57:19.488Z,99444.95
2022-10-02T05:02:30.865Z,99448.33
2022-10-02T05:07:41.766Z,99455.81
2022-10-02T05:12:50.872Z,99457.74
2022-10-02T05:18:03.095Z,99459.19
2022-10-02T05:23:24.701Z,99464.97
2022-10-02T05:28:28.092Z,99466.66
2022-10-02T05:33:58.630Z,99464.88
2022-10-02T05:39:09.880Z,99474.11
2022-10-02T05:44:15.590Z,99476.76
2022-10-02T05:49:26.680Z,99481.83
2022-10-02T05:55:19.198Z,99482.30
2022-10-02T06:00:31.595Z,99493.67
2022-10-02T06:05:56.529Z,99497.58
2022-10-02T06:11:07.136Z,99502.88
2022-10-02T06:16:36.803Z,99503.34
2022-10-02T06:22:00.705Z,99505.48
2022-10-02T06:27:22.550Z,99508.63
2022-10-02T06:32:54.634Z,99511.96
2022-10-02T06:38:27.231Z,99512.85
2022-10-02T06:43:40.782Z,99516.19
2022-10-02T06:48:53.307Z,99520.17
2022-10-02T06:54:19.451Z,99519.09
2022-10-02T06:59:48.574Z,99524.98
2022-10-02T07:05:09.251Z,99525.30
2022-10-02T07:10:29.369Z,99534.55
2022-10-02T07:15:52.441Z,99537.23
2022-10-02T07:21:03.396Z,99539.12
2022-10-02T07:26:19.971Z,99541.98
2022-10-02T07:31:50.492Z,99543.56
2022-10-02T07:37:08.618Z,99538.52
2022-10-02T07:42:40.190Z,99538.90
2022-10-02T07:48:10.612Z,99543.56
2022-10-02T07:53:32.103Z,99543.34
2022-10-02T07:58:42.167Z,99548.69
2022-10-02T08:03:50.412Z,99549.16
2022-10-02T08:09:02.649Z,99559.44
2022-10-02T08:14:09.036Z,99556.17
2022-10-02T08:19:39.612Z,99558.27
2022-10-02T08:24:55.286Z,99560.11
2022-10-02T08:30:07.814Z,99564.52
2022-10-02T08:35:21.464Z,99564.60
2022-10-02T08:40:44.023Z,99568.99
2022-10-02T08:46:18.874Z,99573.81
2022-10-02T08:51:31.195Z,99577.48
2022-10-02T08:56:58.891Z,99569.80
2022-10-02T09:02:28.049Z,99564.89
2022-10-02T09:07:49.542Z,99570.20
2022-10-02T09:13:08.712Z,99579.87
2022-10-02T09:18:30.253Z,99586.69
2022-10-02T09:24:20.155Z,99587.55
2022-10-02T09:29:42.512Z,99590.13
2022-10-02T09:35:23.504Z,99584.15
2022-10-02T09:40:54.360Z,99585.26
2022-10-02T09:46:27.058Z,99581.10
2022-10-02T09:52:04.680Z,99575.67
2022-10-02T09:57:31.541Z,99577.04
2022-10-02T10:02:54.915Z,99581.27
2022-10-02T10:08:21.676Z,99578.83
2022-10-02T10:13:44.238Z,99577.04
2022-10-02T10:19:09.055Z,99579.21
2022-10-02T10:24:49.545Z,99574.46
2022-10-02T10:30:19.677Z,99580.86
2022-10-02T10:35:48.175Z,99579.36
2022-10-02T10:41:03.675Z,99573.74
2022-10-02T10:46:19.210Z,99572.26
2022-10-02T10:51:36.938Z,99571.18
2022-10-02T10:56:57.226Z,99565.77
2022-10-02T11:02:03.541Z,99561.21
2022-10-02T11:07:16.997Z,99559.87
2022-10-02T11:12:29.429Z,99553.34
2022-10-02T11:17:54.603Z,99551.52
2022-10-02T11:23:19.107Z,99550.21
2022-10-02T11:28:48.836Z,99546.69
2022-10-02T11:34:32.492Z,99550.89
2022-10-02T11:40:08.171Z,99550.62
2022-10-02T11:45:42.223Z,99554.01
2022-10-02T11:51:00.575Z,99551.92
2022-10-02T11:56:27.524Z,99554.64
2022-10-02T12:02:05.870Z,99554.63
2022-10-02T12:07:28.929Z,99558.33
2022-10-02T12:13:02.753Z,99561.83
2022-10-02T12:18:44.257Z,99560.17
2022-10-02T12:24:32.938Z,99567.75
2022-10-02T12:29:42.430Z,99579.09
2022-10-02T12:35:25.587Z,99588.55
2022-10-02T12:40:56.008Z,99588.69
2022-10-02T12:46:37.111Z,99587.66
2022-10-02T12:51:57.010Z,99571.74
2022-10-02T12:57:39.297Z,99566.33
2022-10-02T13:03:15.297Z,99567.31
2022-10-02T13:08:32.093Z,99566.40
2022-10-02T13:13:56.532Z,99562.30
2022-10-02T13:19:17.993Z,99560.45
2022-10-02T13:24:24.800Z,99554.01
2022-10-02T13:29:46.462Z,99548.67
2022-10-02T13:35:25.910Z,99545.14
2022-10-02T13:41:04.884Z,99548.34
2022-10-02T13:46:24.893Z,99559.38
2022-10-02T13:51:35.227Z,99566.48
2022-10-02T13:56:43.003Z,99575.54
2022-10-02T14:02:05.701Z,99567.53
2022-10-02T14:07:19.404Z,99564.25
2022-10-02T14:12:50.779Z,99554.61
2022-10-02T14:18:31.714Z,99551.23
2022-10-02T14:24:04.184Z,99544.77
2022-10-02T14:29:26.810Z,99543.21
2022-10-02T14:34:45.584Z,99547.45
2022-10-02T14:39:49.868Z,99548.75
2022-10-02T14:44:53.727Z,99546.48
2022-10-02T14:49:56.995Z,99552.48
2022-10-02T14:55:23.098Z,99551.54
2022-10-02T15:00:44.791Z,99554.95
2022-10-02T15:06:06.695Z,99553.61
2022-10-02T15:11:28.583Z,99558.36
2022-10-02T15:17:03.550Z,99552.85
2022-10-02T15:22:21.115Z,99549.28
2022-10-02T15:28:24.135Z,99549.01
2022-10-02T15:33:26.125Z,99545.30
2022-10-02T15:38:50.019Z,99545.61
2022-10-02T15:44:16.206Z,99548.75
2022-10-02T15:49:26.872Z,99552.11
2022-10-02T15:54:53.121Z,99546.68
2022-10-02T16:00:18.307Z,99544.41
2022-10-02T16:05:32.336Z,99543.98
2022-10-02T16:10:53.502Z,99541.21
2022-10-02T16:16:16.498Z,99546.57
2022-10-02T16:21:31.813Z,99551.64
2022-10-02T16:27:01.593Z,99557.78
2022-10-02T16:32:25.295Z,99557.56
2022-10-02T16:37:45.373Z,99557.80
2022-10-02T16:42:53.654Z,99558.48
2022-10-02T16:48:15.502Z,99555.28
2022-10-02T16:53:46.423Z,99558.09
2022-10-02T16:59:31.973Z,99556.41
2022-10-02T17:05:16.167Z,99562.08
2022-10-02T17:10:40.169Z,99566.12
2022-10-02T17:15:52.894Z,99571.02
2022-10-02T17:21:28.414Z,99571.52
2022-10-02T17:26:51.108Z,99578.27
2022-10-02T17:31:58.714Z,99576.60
2022-10-02T17:37:15.370Z,99571.65
2022-10-02T17:42:42.182Z,99575.02
2022-10-02T17:47:54.843Z,99577.23
2022-10-02T17:53:41.959Z,99576.05
2022-10-02T17:58:49.324Z,99579.09
2022-10-02T18:04:28.462Z,99579.79
2022-10-02T18:09:55.038Z,99580.36
2022-10-02T18:15:14.632Z,99576.34
2022-10-02T18:20:53.652Z,99577.66
2022-10-02T18:26:07.251Z,99574.84
2022-10-02T18:31:33.194Z,99568.59
2022-10-02T18:37:12.893Z,99567.21
2022-10-02T18:42:42.032Z,99572.69
2022-10-02T18:48:19.788Z,99575.06
2022-10-02T18:53:59.073Z,99571.58
2022-10-02T18:59:38.825Z,99570.21
2022-10-02T19:05:18.341Z,99576.67
2022-10-02T19:10:40.642Z,99575.66
2022-10-02T19:15:47.017Z,99574.54
2022-10-02T19:21:19.939Z,99573.98
2022-10-02T19:26:30.815Z,99579.85
2022-10-02T19:31:39.990Z,99579.80
2022-10-02T19:36:51.625Z,99573.53
2022-10-02T19:41:58.452Z,99573.59
2022-10-02T19:47:13.128Z,99568.83
2022-10-02T19:52:44.773Z,99563.60
2022-10-02T19:57:50.764Z,99558.35
2022-10-02T20:02:57.821Z,99560.14
2022-10-02T20:08:08.955Z,99556.21
2022-10-02T20:13:29.336Z,99555.33
2022-10-02T20:18:34.729Z,99555.92
2022-10-02T20:23:43.996Z,99551.74
2022-10-02T20:29:01.841Z,99551.88
2022-10-02T20:34:19.041Z,99547.02
2022-10-02T20:39:30.312Z,99546.08
2022-10-02T20:44:36.729Z,99543.76
2022-10-02T20:49:59.678Z,99543.70
2022-10-02T20:55:27.993Z,99543.85
2022-10-02T21:01:01.230Z,99540.19
2022-10-02T21:06:05.061Z,99533.30
2022-10-02T21:11:20.292Z,99532.99
2022-10-02T21:16:40.630Z,99533.77
2022-10-02T21:22:13.206Z,99529.17
2022-10-02T21:27:38.653Z,99520.16
2022-10-02T21:33:14.065Z,99523.30
2022-10-02T21:38:44.837Z,99518.79
2022-10-02T21:44:04.210Z,99517.46
2022-10-02T21:49:35.450Z,99511.48
2022-10-02T21:55:10.261Z,99510.05
2022-10-02T22:00:31.801Z,99505.34
2022-10-02T22:06:14.175Z,99505.75
2022-10-02T22:12:00.014Z,99508.73
2022-10-02T22:17:23.873Z,99506.49
2022-10-02T22:22:44.591Z,99507.57
2022-10-02T22:28:03.664Z,99508.00
2022-10-02T22:33:38.611Z,99505.80
2022-10-02T22:38:51.502Z,99505.77
2022-10-02T22:44:01.348Z,99508.43
2022-10-02T22:49:50.754Z,99500.70
2022-10-02T22:55:04.946Z,99499.43
2022-10-02T23:00:13.709Z,99505.45
2022-10-02T23:05:28.867Z,99503.14
2022-10-02T23:10:46.449Z,99495.58
2022-10-02T23:16:13.099Z,99494.16
2022-10-02T23:21:19.431Z,99488.09
2022-10-02T23:26:30.521Z,99480.42
2022-10-02T23:31:42.379Z,99480.75
2022-10-02T23:37:38.790Z,99483.73
2022-10-02T23:42:54.910Z,99485.27
2022-10-02T23:48:13.892Z,99490.06
2022-10-02T23:53:29.563Z,99486.20
2022-10-02T23:59:03.152Z,99486.94
